sensor_id;sensor_type;location;lat;lon;timestamp;P1;durP1;ratioP1;P2;durP2;ratioP2
75112;SDS011;63692;47.338;8.520;2024-02-04T08:05:32;14.50;;;8.77;;
75112;SDS011;63692;47.338;8.520;2024-02-04T08:08:00;11.98;;;6.70;;
75112;SDS011;63692;47.338;8.520;2024-02-04T08:10:25;11.95;;;7.22;;
75112;SDS011;63692;47.338;8.520;2024-02-04T08:12:51;13.68;;;6.45;;
75112;SDS011;63692;47.338;8.520;2024-02-04T08:15:18;13.07;;;6.82;;
75112;SDS011;63692;47.338;8.520;2024-02-04T08:17:45;11.85;;;6.68;;
75112;SDS011;63692;47.338;8.520;2024-02-04T08:20:11;17.65;;;10.15;;
75112;SDS011;63692;47.338;8.520;2024-02-04T08:22:37;24.40;;;12.82;;
75112;SDS011;63692;47.338;8.520;2024-02-04T08:25:03;20.17;;;12.25;;
75112;SDS011;63692;47.338;8.520;2024-02-04T08:27:30;21.38;;;12.88;;
75112;SDS011;63692;47.338;8.520;2024-02-04T08:29:56;14.50;;;9.25;;
75112;SDS011;63692;47.338;8.520;2024-02-04T08:32:22;22.88;;;10.95;;
75112;SDS011;63692;47.338;8.520;2024-02-04T08:34:48;17.65;;;10.65;;
75112;SDS011;63692;47.338;8.520;2024-02-04T08:37:13;15.43;;;9.57;;
75112;SDS011;63692;47.338;8.520;2024-02-04T08:39:39;13.52;;;7.40;;
75112;SDS011;63692;47.338;8.520;2024-02-04T08:42:05;13.32;;;8.20;;
75112;SDS011;63692;47.338;8.520;2024-02-04T08:44:31;12.90;;;6.70;;
75112;SDS011;63692;47.338;8.520;2024-02-04T08:46:56;14.18;;;6.45;;
75112;SDS011;63692;47.338;8.520;2024-02-04T08:49:22;10.23;;;6.03;;
75112;SDS011;63692;47.338;8.520;2024-02-04T08:51:47;11.55;;;6.70;;
75112;SDS011;63692;47.338;8.520;2024-02-04T08:54:13;16.10;;;8.15;;
75112;SDS011;63692;47.338;8.520;2024-02-04T08:56:39;11.13;;;7.03;;
75112;SDS011;63692;47.338;8.520;2024-02-04T08:59:05;10.93;;;6.68;;
75112;SDS011;63692;47.338;8.520;2024-02-04T09:01:31;12.90;;;7.53;;
75112;SDS011;63692;47.338;8.520;2024-02-04T09:03:57;15.43;;;9.30;;
75112;SDS011;63692;47.338;8.520;2024-02-04T09:06:22;16.75;;;10.80;;
75112;SDS011;63692;47.338;8.520;2024-02-04T09:08:48;22.35;;;11.43;;
75112;SDS011;63692;47.338;8.520;2024-02-04T09:11:14;17.85;;;11.00;;
75112;SDS011;63692;47.338;8.520;2024-02-04T09:13:44;18.17;;;10.70;;
75112;SDS011;63692;47.338;8.520;2024-02-04T09:16:10;17.38;;;11.38;;
75112;SDS011;63692;47.338;8.520;2024-02-04T09:18:36;20.45;;;11.90;;
75112;SDS011;63692;47.338;8.520;2024-02-04T09:21:02;21.17;;;11.20;;
75112;SDS011;63692;47.338;8.520;2024-02-04T09:23:28;21.65;;;11.10;;
75112;SDS011;63692;47.338;8.520;2024-02-04T09:25:53;19.73;;;10.43;;
75112;SDS011;63692;47.338;8.520;2024-02-04T09:28:19;16.85;;;10.38;;
75112;SDS011;63692;47.338;8.520;2024-02-04T09:30:45;18.45;;;10.13;;
75112;SDS011;63692;47.338;8.520;2024-02-04T09:33:11;14.48;;;9.13;;
75112;SDS011;63692;47.338;8.520;2024-02-04T09:35:38;17.92;;;10.40;;
75112;SDS011;63692;47.338;8.520;2024-02-04T09:38:04;14.93;;;10.02;;
75112;SDS011;63692;47.338;8.520;2024-02-04T09:40:29;17.52;;;9.95;;
75112;SDS011;63692;47.338;8.520;2024-02-04T09:42:56;19.27;;;9.63;;
75112;SDS011;63692;47.338;8.520;2024-02-04T09:45:23;17.75;;;10.18;;
75112;SDS011;63692;47.338;8.520;2024-02-04T09:47:49;18.10;;;9.88;;
75112;SDS011;63692;47.338;8.520;2024-02-04T09:50:18;17.13;;;9.48;;
75112;SDS011;63692;47.338;8.520;2024-02-04T09:52:46;16.73;;;9.07;;
75112;SDS011;63692;47.338;8.520;2024-02-04T09:55:15;15.70;;;8.88;;
75112;SDS011;63692;47.338;8.520;2024-02-04T09:57:43;16.42;;;9.60;;
75112;SDS011;63692;47.338;8.520;2024-02-04T10:00:09;14.15;;;9.40;;
75112;SDS011;63692;47.338;8.520;2024-02-04T10:02:36;15.50;;;9.90;;
75112;SDS011;63692;47.338;8.520;2024-02-04T10:05:02;17.33;;;9.90;;
75112;SDS011;63692;47.338;8.520;2024-02-04T10:07:28;16.98;;;9.27;;
75112;SDS011;63692;47.338;8.520;2024-02-04T10:09:54;14.82;;;8.88;;
75112;SDS011;63692;47.338;8.520;2024-02-04T10:12:21;14.57;;;9.30;;
75112;SDS011;63692;47.338;8.520;2024-02-04T10:14:46;15.77;;;8.23;;
75112;SDS011;63692;47.338;8.520;2024-02-04T10:17:15;11.82;;;7.70;;
75112;SDS011;63692;47.338;8.520;2024-02-04T10:19:40;12.38;;;7.35;;
75112;SDS011;63692;47.338;8.520;2024-02-04T10:22:06;11.63;;;6.57;;
75112;SDS011;63692;47.338;8.520;2024-02-04T10:24:32;11.23;;;6.05;;
75112;SDS011;63692;47.338;8.520;2024-02-04T10:26:57;11.65;;;6.55;;
75112;SDS011;63692;47.338;8.520;2024-02-04T10:29:24;10.57;;;6.70;;
75112;SDS011;63692;47.338;8.520;2024-02-04T10:31:56;11.75;;;6.75;;
75112;SDS011;63692;47.338;8.520;2024-02-04T10:34:31;11.07;;;6.78;;
75112;SDS011;63692;47.338;8.520;2024-02-04T10:36:57;12.82;;;7.97;;
75112;SDS011;63692;47.338;8.520;2024-02-04T10:39:22;12.75;;;7.85;;
75112;SDS011;63692;47.338;8.520;2024-02-04T10:41:52;11.05;;;6.90;;
75112;SDS011;63692;47.338;8.520;2024-02-04T10:44:20;12.25;;;7.65;;
75112;SDS011;63692;47.338;8.520;2024-02-04T10:46:47;15.50;;;7.75;;
75112;SDS011;63692;47.338;8.520;2024-02-04T10:49:15;12.82;;;7.70;;
75112;SDS011;63692;47.338;8.520;2024-02-04T10:51:42;12.35;;;7.40;;
75112;SDS011;63692;47.338;8.520;2024-02-04T10:54:09;15.63;;;7.22;;
75112;SDS011;63692;47.338;8.520;2024-02-04T10:56:42;11.95;;;7.45;;
75112;SDS011;63692;47.338;8.520;2024-02-04T10:59:09;12.88;;;7.07;;
75112;SDS011;63692;47.338;8.520;2024-02-04T11:01:38;16.55;;;8.18;;
75112;SDS011;63692;47.338;8.520;2024-02-04T11:04:08;11.32;;;7.30;;
75112;SDS011;63692;47.338;8.520;2024-02-04T11:06:36;13.07;;;7.13;;
75112;SDS011;63692;47.338;8.520;2024-02-04T11:09:05;12.27;;;7.60;;
75112;SDS011;63692;47.338;8.520;2024-02-04T11:11:33;17.08;;;9.52;;
75112;SDS011;63692;47.338;8.520;2024-02-04T11:14:00;20.55;;;11.18;;
75112;SDS011;63692;47.338;8.520;2024-02-04T11:16:40;16.90;;;8.95;;
75112;SDS011;63692;47.338;8.520;2024-02-04T11:19:23;14.90;;;9.35;;
75112;SDS011;63692;47.338;8.520;2024-02-04T11:22:34;16.95;;;9.38;;
75112;SDS011;63692;47.338;8.520;2024-02-04T11:27:54;16.08;;;8.20;;
75112;SDS011;63692;47.338;8.520;2024-02-04T11:30:20;14.68;;;8.05;;
75112;SDS011;63692;47.338;8.520;2024-02-04T11:32:47;15.68;;;8.10;;
75112;SDS011;63692;47.338;8.520;2024-02-04T11:35:13;12.15;;;7.22;;
75112;SDS011;63692;47.338;8.520;2024-02-04T11:37:39;12.43;;;8.10;;
75112;SDS011;63692;47.338;8.520;2024-02-04T11:40:15;13.77;;;9.23;;
75112;SDS011;63692;47.338;8.520;2024-02-04T11:42:41;15.73;;;8.55;;
75112;SDS011;63692;47.338;8.520;2024-02-04T11:47:36;12.57;;;7.47;;
75112;SDS011;63692;47.338;8.520;2024-02-04T11:50:02;16.00;;;7.70;;
75112;SDS011;63692;47.338;8.520;2024-02-04T11:52:28;13.13;;;7.85;;
75112;SDS011;63692;47.338;8.520;2024-02-04T11:54:54;13.60;;;7.55;;
75112;SDS011;63692;47.338;8.520;2024-02-04T11:57:20;13.63;;;7.90;;
75112;SDS011;63692;47.338;8.520;2024-02-04T11:59:46;13.27;;;7.43;;
75112;SDS011;63692;47.338;8.520;2024-02-04T12:02:15;11.43;;;6.55;;
75112;SDS011;63692;47.338;8.520;2024-02-04T12:04:45;12.82;;;7.63;;
75112;SDS011;63692;47.338;8.520;2024-02-04T12:07:11;15.45;;;7.65;;
75112;SDS011;63692;47.338;8.520;2024-02-04T12:09:39;11.93;;;7.50;;
75112;SDS011;63692;47.338;8.520;2024-02-04T12:12:06;15.70;;;8.38;;
75112;SDS011;63692;47.338;8.520;2024-02-04T12:14:32;11.93;;;7.00;;
75112;SDS011;63692;47.338;8.520;2024-02-04T12:17:07;12.77;;;7.22;;
75112;SDS011;63692;47.338;8.520;2024-02-04T12:19:34;13.70;;;7.47;;
75112;SDS011;63692;47.338;8.520;2024-02-04T12:22:03;14.75;;;7.75;;
75112;SDS011;63692;47.338;8.520;2024-02-04T12:24:34;12.60;;;7.25;;
75112;SDS011;63692;47.338;8.520;2024-02-04T12:27:04;13.07;;;7.20;;
75112;SDS011;63692;47.338;8.520;2024-02-04T12:29:30;10.27;;;6.90;;
75112;SDS011;63692;47.338;8.520;2024-02-04T12:32:00;11.18;;;7.07;;
75112;SDS011;63692;47.338;8.520;2024-02-04T12:34:30;11.90;;;7.07;;
75112;SDS011;63692;47.338;8.520;2024-02-04T12:36:59;12.85;;;7.75;;
75112;SDS011;63692;47.338;8.520;2024-02-04T12:39:25;13.73;;;7.18;;
75112;SDS011;63692;47.338;8.520;2024-02-04T12:41:51;15.23;;;7.28;;
75112;SDS011;63692;47.338;8.520;2024-02-04T12:44:17;11.40;;;6.82;;
75112;SDS011;63692;47.338;8.520;2024-02-04T12:46:43;13.02;;;6.45;;
75112;SDS011;63692;47.338;8.520;2024-02-04T12:49:09;11.50;;;6.85;;
75112;SDS011;63692;47.338;8.520;2024-02-04T12:51:42;16.08;;;7.35;;
75112;SDS011;63692;47.338;8.520;2024-02-04T12:54:09;13.75;;;7.53;;
75112;SDS011;63692;47.338;8.520;2024-02-04T12:56:50;12.55;;;7.30;;
75112;SDS011;63692;47.338;8.520;2024-02-04T12:59:30;13.13;;;7.15;;
75112;SDS011;63692;47.338;8.520;2024-02-04T13:02:00;12.40;;;7.07;;
75112;SDS011;63692;47.338;8.520;2024-02-04T13:07:01;13.82;;;7.95;;
75112;SDS011;63692;47.338;8.520;2024-02-04T13:09:31;13.25;;;7.05;;
75112;SDS011;63692;47.338;8.520;2024-02-04T13:12:03;15.50;;;7.85;;
75112;SDS011;63692;47.338;8.520;2024-02-04T13:14:30;13.27;;;7.53;;
75112;SDS011;63692;47.338;8.520;2024-02-04T13:16:56;14.10;;;7.45;;
75112;SDS011;63692;47.338;8.520;2024-02-04T13:19:22;14.20;;;8.18;;
75112;SDS011;63692;47.338;8.520;2024-02-04T13:24:15;13.65;;;7.45;;
75112;SDS011;63692;47.338;8.520;2024-02-04T13:26:40;14.60;;;7.90;;
75112;SDS011;63692;47.338;8.520;2024-02-04T13:29:06;13.77;;;7.68;;
75112;SDS011;63692;47.338;8.520;2024-02-04T13:31:32;13.73;;;7.47;;
75112;SDS011;63692;47.338;8.520;2024-02-04T13:33:58;13.90;;;7.05;;
75112;SDS011;63692;47.338;8.520;2024-02-04T13:36:24;13.30;;;7.03;;
75112;SDS011;63692;47.338;8.520;2024-02-04T13:38:49;13.52;;;7.40;;
75112;SDS011;63692;47.338;8.520;2024-02-04T13:41:15;12.50;;;7.07;;
75112;SDS011;63692;47.338;8.520;2024-02-04T13:43:41;15.73;;;7.55;;
75112;SDS011;63692;47.338;8.520;2024-02-04T13:46:09;13.48;;;7.55;;
75112;SDS011;63692;47.338;8.520;2024-02-04T13:48:35;12.82;;;7.10;;
75112;SDS011;63692;47.338;8.520;2024-02-04T13:55:56;15.43;;;7.10;;
75112;SDS011;63692;47.338;8.520;2024-02-04T13:58:21;14.75;;;8.10;;
75112;SDS011;63692;47.338;8.520;2024-02-04T14:00:48;12.55;;;7.13;;
75112;SDS011;63692;47.338;8.520;2024-02-04T14:03:14;12.63;;;7.35;;
75112;SDS011;63692;47.338;8.520;2024-02-04T14:05:39;12.05;;;7.43;;
75112;SDS011;63692;47.338;8.520;2024-02-04T14:08:06;11.90;;;7.68;;
75112;SDS011;63692;47.338;8.520;2024-02-04T14:10:32;14.27;;;7.13;;
75112;SDS011;63692;47.338;8.520;2024-02-04T14:12:58;12.93;;;6.90;;
75112;SDS011;63692;47.338;8.520;2024-02-04T14:15:23;11.80;;;6.53;;
75112;SDS011;63692;47.338;8.520;2024-02-04T14:17:49;14.82;;;7.53;;
75112;SDS011;63692;47.338;8.520;2024-02-04T14:20:14;13.05;;;7.00;;
75112;SDS011;63692;47.338;8.520;2024-02-04T14:22:56;12.70;;;6.90;;
75112;SDS011;63692;47.338;8.520;2024-02-04T14:25:22;14.25;;;7.85;;
75112;SDS011;63692;47.338;8.520;2024-02-04T14:27:49;14.23;;;8.05;;
75112;SDS011;63692;47.338;8.520;2024-02-04T14:30:18;12.35;;;8.02;;
75112;SDS011;63692;47.338;8.520;2024-02-04T14:32:43;13.68;;;8.82;;
75112;SDS011;63692;47.338;8.520;2024-02-04T14:35:09;14.38;;;8.15;;
75112;SDS011;63692;47.338;8.520;2024-02-04T14:37:35;16.85;;;8.60;;
75112;SDS011;63692;47.338;8.520;2024-02-04T14:40:04;15.52;;;8.45;;
75112;SDS011;63692;47.338;8.520;2024-02-04T14:42:31;15.27;;;7.95;;
75112;SDS011;63692;47.338;8.520;2024-02-04T14:44:57;14.80;;;7.82;;
75112;SDS011;63692;47.338;8.520;2024-02-04T14:47:25;13.45;;;7.88;;
75112;SDS011;63692;47.338;8.520;2024-02-04T14:49:53;14.43;;;8.02;;
75112;SDS011;63692;47.338;8.520;2024-02-04T14:52:19;17.55;;;8.02;;
75112;SDS011;63692;47.338;8.520;2024-02-04T14:54:45;15.38;;;8.00;;
75112;SDS011;63692;47.338;8.520;2024-02-04T14:57:11;17.52;;;8.80;;
75112;SDS011;63692;47.338;8.520;2024-02-04T14:59:36;17.30;;;8.50;;
75112;SDS011;63692;47.338;8.520;2024-02-04T15:02:03;16.38;;;8.27;;
75112;SDS011;63692;47.338;8.520;2024-02-04T15:04:33;14.50;;;8.50;;
75112;SDS011;63692;47.338;8.520;2024-02-04T15:06:59;14.18;;;8.55;;
75112;SDS011;63692;47.338;8.520;2024-02-04T15:09:28;13.30;;;7.93;;
75112;SDS011;63692;47.338;8.520;2024-02-04T15:11:57;14.65;;;8.50;;
75112;SDS011;63692;47.338;8.520;2024-02-04T15:14:23;13.18;;;8.10;;
75112;SDS011;63692;47.338;8.520;2024-02-04T15:16:50;13.82;;;8.32;;
75112;SDS011;63692;47.338;8.520;2024-02-04T15:19:16;14.30;;;8.38;;
75112;SDS011;63692;47.338;8.520;2024-02-04T15:21:42;14.02;;;8.50;;
75112;SDS011;63692;47.338;8.520;2024-02-04T15:24:08;14.23;;;8.43;;
75112;SDS011;63692;47.338;8.520;2024-02-04T15:26:34;15.73;;;8.35;;
75112;SDS011;63692;47.338;8.520;2024-02-04T15:29:05;13.35;;;8.00;;
75112;SDS011;63692;47.338;8.520;2024-02-04T15:31:31;15.40;;;8.75;;
75112;SDS011;63692;47.338;8.520;2024-02-04T15:34:00;20.35;;;10.30;;
75112;SDS011;63692;47.338;8.520;2024-02-04T15:36:30;19.38;;;10.98;;
75112;SDS011;63692;47.338;8.520;2024-02-04T15:38:57;17.23;;;9.82;;
75112;SDS011;63692;47.338;8.520;2024-02-04T15:41:23;19.42;;;10.20;;
75112;SDS011;63692;47.338;8.520;2024-02-04T15:43:49;20.92;;;11.40;;
75112;SDS011;63692;47.338;8.520;2024-02-04T15:48:42;18.42;;;9.95;;
75112;SDS011;63692;47.338;8.520;2024-02-04T15:51:09;18.40;;;9.88;;
75112;SDS011;63692;47.338;8.520;2024-02-04T15:53:35;16.58;;;9.93;;
75112;SDS011;63692;47.338;8.520;2024-02-04T15:58:36;18.98;;;10.00;;
75112;SDS011;63692;47.338;8.520;2024-02-04T16:06:00;17.25;;;9.90;;
75112;SDS011;63692;47.338;8.520;2024-02-04T16:08:26;16.02;;;9.63;;
75112;SDS011;63692;47.338;8.520;2024-02-04T16:13:19;16.95;;;10.10;;
75112;SDS011;63692;47.338;8.520;2024-02-04T16:23:20;14.50;;;9.88;;
75112;SDS011;63692;47.338;8.520;2024-02-04T16:25:45;19.50;;;9.80;;
75112;SDS011;63692;47.338;8.520;2024-02-04T16:28:11;16.60;;;9.85;;
75112;SDS011;63692;47.338;8.520;2024-02-04T16:30:37;17.17;;;10.50;;
75112;SDS011;63692;47.338;8.520;2024-02-04T16:33:02;19.25;;;10.75;;
75112;SDS011;63692;47.338;8.520;2024-02-04T16:35:28;20.85;;;10.95;;
75112;SDS011;63692;47.338;8.520;2024-02-04T16:37:54;18.83;;;10.57;;
75112;SDS011;63692;47.338;8.520;2024-02-04T16:40:21;19.95;;;10.45;;
75112;SDS011;63692;47.338;8.520;2024-02-04T16:42:48;20.67;;;10.70;;
75112;SDS011;63692;47.338;8.520;2024-02-04T16:45:13;20.70;;;10.98;;
75112;SDS011;63692;47.338;8.520;2024-02-04T16:47:39;19.05;;;10.13;;
75112;SDS011;63692;47.338;8.520;2024-02-04T16:50:05;19.35;;;10.88;;
75112;SDS011;63692;47.338;8.520;2024-02-04T16:52:32;20.38;;;11.40;;
75112;SDS011;63692;47.338;8.520;2024-02-04T16:54:57;18.92;;;10.65;;
75112;SDS011;63692;47.338;8.520;2024-02-04T16:57:23;19.10;;;11.35;;
75112;SDS011;63692;47.338;8.520;2024-02-04T16:59:49;23.90;;;13.73;;
75112;SDS011;63692;47.338;8.520;2024-02-04T17:02:14;22.58;;;12.70;;
75112;SDS011;63692;47.338;8.520;2024-02-04T17:07:11;23.80;;;12.85;;
75112;SDS011;63692;47.338;8.520;2024-02-04T17:14:35;14.68;;;8.90;;
75112;SDS011;63692;47.338;8.520;2024-02-04T17:17:05;17.95;;;9.32;;
75112;SDS011;63692;47.338;8.520;2024-02-04T17:22:01;19.92;;;11.35;;
75112;SDS011;63692;47.338;8.520;2024-02-04T17:24:37;18.02;;;9.98;;
75112;SDS011;63692;47.338;8.520;2024-02-04T17:27:08;19.00;;;10.40;;
75112;SDS011;63692;47.338;8.520;2024-02-04T17:29:36;20.85;;;10.85;;
75112;SDS011;63692;47.338;8.520;2024-02-04T17:32:02;19.08;;;10.40;;
75112;SDS011;63692;47.338;8.520;2024-02-04T17:34:33;17.08;;;9.98;;
75112;SDS011;63692;47.338;8.520;2024-02-04T17:36:59;19.65;;;10.80;;
75112;SDS011;63692;47.338;8.520;2024-02-04T17:39:24;19.83;;;12.43;;
75112;SDS011;63692;47.338;8.520;2024-02-04T17:41:52;21.42;;;12.38;;
75112;SDS011;63692;47.338;8.520;2024-02-04T17:44:19;21.23;;;11.82;;
75112;SDS011;63692;47.338;8.520;2024-02-04T17:46:44;20.83;;;11.68;;
75112;SDS011;63692;47.338;8.520;2024-02-04T17:49:12;20.55;;;10.95;;
75112;SDS011;63692;47.338;8.520;2024-02-04T17:51:41;20.65;;;10.82;;
75112;SDS011;63692;47.338;8.520;2024-02-04T17:54:11;19.47;;;11.77;;
75112;SDS011;63692;47.338;8.520;2024-02-04T17:56:37;19.40;;;10.43;;
75112;SDS011;63692;47.338;8.520;2024-02-04T17:59:03;18.95;;;10.57;;
75112;SDS011;63692;47.338;8.520;2024-02-04T18:01:29;17.55;;;9.30;;
75112;SDS011;63692;47.338;8.520;2024-02-04T18:03:54;17.23;;;9.32;;
75112;SDS011;63692;47.338;8.520;2024-02-04T18:06:20;15.57;;;8.82;;
75112;SDS011;63692;47.338;8.520;2024-02-04T18:08:46;18.48;;;9.27;;
75112;SDS011;63692;47.338;8.520;2024-02-04T18:11:18;16.35;;;9.23;;
75112;SDS011;63692;47.338;8.520;2024-02-04T18:13:47;19.75;;;8.63;;
75112;SDS011;63692;47.338;8.520;2024-02-04T18:16:14;17.25;;;8.55;;
75112;SDS011;63692;47.338;8.520;2024-02-04T18:18:40;17.05;;;8.50;;
75112;SDS011;63692;47.338;8.520;2024-02-04T18:21:23;16.60;;;8.20;;
75112;SDS011;63692;47.338;8.520;2024-02-04T18:23:50;14.77;;;8.68;;
75112;SDS011;63692;47.338;8.520;2024-02-04T18:26:27;18.90;;;9.35;;
75112;SDS011;63692;47.338;8.520;2024-02-04T18:28:57;19.20;;;8.93;;
75112;SDS011;63692;47.338;8.520;2024-02-04T18:31:24;16.65;;;9.48;;
75112;SDS011;63692;47.338;8.520;2024-02-04T18:33:51;17.95;;;9.18;;
75112;SDS011;63692;47.338;8.520;2024-02-04T18:36:18;19.48;;;9.40;;
75112;SDS011;63692;47.338;8.520;2024-02-04T18:38:49;17.15;;;9.05;;
75112;SDS011;63692;47.338;8.520;2024-02-04T18:41:15;18.02;;;9.48;;
75112;SDS011;63692;47.338;8.520;2024-02-04T18:43:45;18.08;;;10.05;;
75112;SDS011;63692;47.338;8.520;2024-02-04T18:46:14;19.20;;;9.32;;
75112;SDS011;63692;47.338;8.520;2024-02-04T18:53:40;21.88;;;10.10;;
